sensor_id;sensor_type;location;lat;lon;timestamp;pressure;altitude;pressure_sealevel;temperature;humidity
33625;BME280;19962;47.820;1.930;2024-01-30T00:01:45;101715.69;;;13.31;85.36
33625;BME280;19962;47.820;1.930;2024-01-30T00:04:11;101715.50;;;13.32;85.07
33625;BME280;19962;47.820;1.930;2024-01-30T00:06:37;101707.91;;;13.28;85.51
33625;BME280;19962;47.820;1.930;2024-01-30T00:09:03;101711.09;;;13.25;85.27
33625;BME280;19962;47.820;1.930;2024-01-30T00:11:31;101707.69;;;13.23;85.36
33625;BME280;19962;47.820;1.930;2024-01-30T00:13:57;101703.44;;;13.20;85.51
33625;BME280;19962;47.820;1.930;2024-01-30T00:16:24;101704.09;;;13.22;85.40
33625;BME280;19962;47.820;1.930;2024-01-30T00:18:51;101702.16;;;13.23;85.59
33625;BME280;19962;47.820;1.930;2024-01-30T00:21:17;101708.16;;;13.20;85.45
33625;BME280;19962;47.820;1.930;2024-01-30T00:23:44;101701.56;;;13.21;85.51
33625;BME280;19962;47.820;1.930;2024-01-30T00:26:10;101703.25;;;13.22;85.53
33625;BME280;19962;47.820;1.930;2024-01-30T00:28:37;101708.75;;;13.22;85.52
33625;BME280;19962;47.820;1.930;2024-01-30T00:31:04;101701.56;;;13.21;85.68
33625;BME280;19962;47.820;1.930;2024-01-30T00:33:30;101708.31;;;13.25;85.48
33625;BME280;19962;47.820;1.930;2024-01-30T00:35:57;101710.00;;;13.26;85.44
33625;BME280;19962;47.820;1.930;2024-01-30T00:38:23;101713.84;;;13.25;85.56
33625;BME280;19962;47.820;1.930;2024-01-30T00:40:49;101708.53;;;13.23;85.32
33625;BME280;19962;47.820;1.930;2024-01-30T00:43:16;101713.19;;;13.23;85.31
33625;BME280;19962;47.820;1.930;2024-01-30T00:45:45;101718.53;;;13.18;85.64
33625;BME280;19962;47.820;1.930;2024-01-30T00:48:11;101717.91;;;13.16;86.04
33625;BME280;19962;47.820;1.930;2024-01-30T00:50:37;101724.03;;;13.18;85.87
33625;BME280;19962;47.820;1.930;2024-01-30T00:53:04;101725.09;;;13.17;85.89
33625;BME280;19962;47.820;1.930;2024-01-30T00:55:30;101721.50;;;13.16;86.01
33625;BME280;19962;47.820;1.930;2024-01-30T00:57:56;101728.28;;;13.14;85.83
33625;BME280;19962;47.820;1.930;2024-01-30T01:00:22;101731.50;;;13.11;86.07
33625;BME280;19962;47.820;1.930;2024-01-30T01:02:55;101738.69;;;13.12;86.09
33625;BME280;19962;47.820;1.930;2024-01-30T01:05:21;101729.81;;;13.10;86.03
33625;BME280;19962;47.820;1.930;2024-01-30T01:07:47;101732.78;;;13.08;86.10
33625;BME280;19962;47.820;1.930;2024-01-30T01:10:17;101735.09;;;13.05;86.31
33625;BME280;19962;47.820;1.930;2024-01-30T01:12:44;101728.78;;;13.04;86.52
33625;BME280;19962;47.820;1.930;2024-01-30T01:15:10;101725.16;;;13.04;86.39
33625;BME280;19962;47.820;1.930;2024-01-30T01:17:37;101724.53;;;13.02;86.66
33625;BME280;19962;47.820;1.930;2024-01-30T01:20:04;101734.06;;;13.06;86.72
33625;BME280;19962;47.820;1.930;2024-01-30T01:22:34;101733.00;;;13.07;86.52
33625;BME280;19962;47.820;1.930;2024-01-30T01:25:00;101734.69;;;13.08;86.71
33625;BME280;19962;47.820;1.930;2024-01-30T01:27:26;101736.56;;;13.07;86.32
33625;BME280;19962;47.820;1.930;2024-01-30T01:29:53;101736.38;;;13.02;86.58
33625;BME280;19962;47.820;1.930;2024-01-30T01:32:19;101736.00;;;12.99;86.61
33625;BME280;19962;47.820;1.930;2024-01-30T01:34:45;101731.94;;;12.95;86.83
33625;BME280;19962;47.820;1.930;2024-01-30T01:37:12;101739.13;;;12.96;87.05
33625;BME280;19962;47.820;1.930;2024-01-30T01:39:38;101733.00;;;12.94;87.07
33625;BME280;19962;47.820;1.930;2024-01-30T01:42:04;101732.38;;;12.92;87.25
33625;BME280;19962;47.820;1.930;2024-01-30T01:44:30;101737.66;;;12.93;87.01
33625;BME280;19962;47.820;1.930;2024-01-30T01:46:57;101735.75;;;12.94;86.90
33625;BME280;19962;47.820;1.930;2024-01-30T01:49:25;101737.44;;;12.95;87.03
33625;BME280;19962;47.820;1.930;2024-01-30T01:51:55;101735.38;;;12.90;87.01
33625;BME280;19962;47.820;1.930;2024-01-30T01:54:23;101740.63;;;12.92;87.22
33625;BME280;19962;47.820;1.930;2024-01-30T01:56:50;101740.63;;;12.92;87.17
33625;BME280;19962;47.820;1.930;2024-01-30T01:59:18;101731.53;;;12.91;87.20
33625;BME280;19962;47.820;1.930;2024-01-30T02:01:45;101739.59;;;12.93;87.20
33625;BME280;19962;47.820;1.930;2024-01-30T02:04:15;101727.09;;;12.90;87.27
33625;BME280;19962;47.820;1.930;2024-01-30T02:06:42;101743.38;;;12.92;87.26
33625;BME280;19962;47.820;1.930;2024-01-30T02:09:09;101737.44;;;12.95;87.13
33625;BME280;19962;47.820;1.930;2024-01-30T02:11:35;101741.06;;;12.95;87.00
33625;BME280;19962;47.820;1.930;2024-01-30T02:14:05;101734.09;;;12.93;87.18
33625;BME280;19962;47.820;1.930;2024-01-30T02:16:32;101737.25;;;12.96;87.22
33625;BME280;19962;47.820;1.930;2024-01-30T02:18:58;101728.97;;;12.96;87.20
33625;BME280;19962;47.820;1.930;2024-01-30T02:21:25;101729.88;;;12.97;86.92
33625;BME280;19962;47.820;1.930;2024-01-30T02:23:52;101721.59;;;12.97;86.92
33625;BME280;19962;47.820;1.930;2024-01-30T02:26:20;101724.34;;;12.97;87.14
33625;BME280;19962;47.820;1.930;2024-01-30T02:28:46;101725.34;;;12.96;87.38
33625;BME280;19962;47.820;1.930;2024-01-30T02:31:12;101722.84;;;12.94;87.32
33625;BME280;19962;47.820;1.930;2024-01-30T02:33:38;101731.31;;;12.93;87.18
33625;BME280;19962;47.820;1.930;2024-01-30T02:36:04;101726.03;;;12.91;87.28
33625;BME280;19962;47.820;1.930;2024-01-30T02:38:31;101732.59;;;12.90;87.35
33625;BME280;19962;47.820;1.930;2024-01-30T02:40:57;101731.31;;;12.93;87.25
33625;BME280;19962;47.820;1.930;2024-01-30T02:43:23;101739.38;;;12.94;87.14
33625;BME280;19962;47.820;1.930;2024-01-30T02:45:49;101736.84;;;12.93;87.42
33625;BME280;19962;47.820;1.930;2024-01-30T02:48:15;101733.00;;;12.94;87.39
33625;BME280;19962;47.820;1.930;2024-01-30T02:50:41;101730.03;;;12.95;87.23
33625;BME280;19962;47.820;1.930;2024-01-30T02:53:07;101731.56;;;12.98;87.18
33625;BME280;19962;47.820;1.930;2024-01-30T02:55:34;101726.03;;;12.98;87.04
33625;BME280;19962;47.820;1.930;2024-01-30T02:58:00;101732.63;;;12.97;87.04
33625;BME280;19962;47.820;1.930;2024-01-30T03:00:26;101728.78;;;12.98;87.19
33625;BME280;19962;47.820;1.930;2024-01-30T03:02:52;101726.66;;;13.00;86.85
33625;BME280;19962;47.820;1.930;2024-01-30T03:05:18;101724.34;;;12.97;86.98
33625;BME280;19962;47.820;1.930;2024-01-30T03:07:44;101732.63;;;12.97;87.00
33625;BME280;19962;47.820;1.930;2024-01-30T03:10:10;101730.47;;;12.99;87.04
33625;BME280;19962;47.820;1.930;2024-01-30T03:12:36;101723.69;;;13.01;87.12
33625;BME280;19962;47.820;1.930;2024-01-30T03:15:02;101735.78;;;13.00;86.74
33625;BME280;19962;47.820;1.930;2024-01-30T03:17:28;101732.16;;;13.00;87.14
33625;BME280;19962;47.820;1.930;2024-01-30T03:19:54;101726.88;;;12.98;87.05
33625;BME280;19962;47.820;1.930;2024-01-30T03:22:20;101721.16;;;13.00;86.73
33625;BME280;19962;47.820;1.930;2024-01-30T03:24:47;101721.59;;;12.97;86.95
33625;BME280;19962;47.820;1.930;2024-01-30T03:27:13;101728.34;;;12.94;87.48
33625;BME280;19962;47.820;1.930;2024-01-30T03:29:39;101725.34;;;12.96;87.14
33625;BME280;19962;47.820;1.930;2024-01-30T03:32:05;101717.78;;;12.98;87.25
33625;BME280;19962;47.820;1.930;2024-01-30T03:34:31;101726.22;;;12.96;87.04
33625;BME280;19962;47.820;1.930;2024-01-30T03:36:57;101722.00;;;12.94;87.29
33625;BME280;19962;47.820;1.930;2024-01-30T03:39:23;101719.03;;;12.95;86.96
33625;BME280;19962;47.820;1.930;2024-01-30T03:41:49;101717.56;;;12.93;87.13
33625;BME280;19962;47.820;1.930;2024-01-30T03:44:15;101718.16;;;12.95;87.00
33625;BME280;19962;47.820;1.930;2024-01-30T03:46:42;101728.13;;;12.96;87.22
33625;BME280;19962;47.820;1.930;2024-01-30T03:49:09;101725.81;;;12.93;87.34
33625;BME280;19962;47.820;1.930;2024-01-30T03:51:35;101729.59;;;12.92;87.33
33625;BME280;19962;47.820;1.930;2024-01-30T03:54:01;101730.06;;;12.89;87.19
33625;BME280;19962;47.820;1.930;2024-01-30T03:56:27;101723.28;;;12.91;87.31
33625;BME280;19962;47.820;1.930;2024-01-30T03:58:53;101728.13;;;12.96;87.27
33625;BME280;19962;47.820;1.930;2024-01-30T04:01:19;101736.00;;;12.99;86.63
33625;BME280;19962;47.820;1.930;2024-01-30T04:03:45;101730.88;;;12.96;87.06
33625;BME280;19962;47.820;1.930;2024-01-30T04:06:12;101740.19;;;12.95;86.95
33625;BME280;19962;47.820;1.930;2024-01-30T04:08:38;101738.75;;;12.99;86.82
33625;BME280;19962;47.820;1.930;2024-01-30T04:11:07;101740.19;;;12.95;86.97
33625;BME280;19962;47.820;1.930;2024-01-30T04:13:34;101734.09;;;12.93;87.24
33625;BME280;19962;47.820;1.930;2024-01-30T04:16:00;101741.06;;;12.95;87.05
33625;BME280;19962;47.820;1.930;2024-01-30T04:18:29;101740.63;;;12.92;87.13
33625;BME280;19962;47.820;1.930;2024-01-30T04:20:55;101753.38;;;12.93;87.33
33625;BME280;19962;47.820;1.930;2024-01-30T04:23:22;101750.81;;;12.91;87.32
33625;BME280;19962;47.820;1.930;2024-01-30T04:25:48;101749.53;;;12.94;87.17
33625;BME280;19962;47.820;1.930;2024-01-30T04:28:14;101756.72;;;12.95;87.12
33625;BME280;19962;47.820;1.930;2024-01-30T04:30:40;101742.56;;;12.91;87.04
33625;BME280;19962;47.820;1.930;2024-01-30T04:33:06;101747.84;;;12.93;86.91
33625;BME280;19962;47.820;1.930;2024-01-30T04:35:32;101746.13;;;12.92;86.77
33625;BME280;19962;47.820;1.930;2024-01-30T04:37:58;101748.06;;;12.91;87.25
33625;BME280;19962;47.820;1.930;2024-01-30T04:40:25;101754.41;;;12.92;86.91
33625;BME280;19962;47.820;1.930;2024-01-30T04:42:51;101756.53;;;12.90;87.16
33625;BME280;19962;47.820;1.930;2024-01-30T04:45:17;101751.03;;;12.90;87.24
33625;BME280;19962;47.820;1.930;2024-01-30T04:47:43;101752.94;;;12.89;87.06
33625;BME280;19962;47.820;1.930;2024-01-30T04:50:09;101751.25;;;12.88;87.15
33625;BME280;19962;47.820;1.930;2024-01-30T04:52:36;101759.72;;;12.87;87.01
33625;BME280;19962;47.820;1.930;2024-01-30T04:55:02;101754.22;;;12.87;87.15
33625;BME280;19962;47.820;1.930;2024-01-30T04:57:28;101752.94;;;12.89;86.92
33625;BME280;19962;47.820;1.930;2024-01-30T04:59:54;101759.72;;;12.87;87.02
33625;BME280;19962;47.820;1.930;2024-01-30T05:02:20;101759.72;;;12.87;87.11
33625;BME280;19962;47.820;1.930;2024-01-30T05:04:46;101759.72;;;12.87;87.00
33625;BME280;19962;47.820;1.930;2024-01-30T05:07:12;101770.72;;;12.87;86.81
33625;BME280;19962;47.820;1.930;2024-01-30T05:09:38;101762.06;;;12.83;87.16
33625;BME280;19962;47.820;1.930;2024-01-30T05:12:04;101764.19;;;12.81;87.00
33625;BME280;19962;47.820;1.930;2024-01-30T05:14:30;101764.19;;;12.81;87.19
33625;BME280;19962;47.820;1.930;2024-01-30T05:16:57;101761.84;;;12.85;87.17
33625;BME280;19962;47.820;1.930;2024-01-30T05:19:23;101772.00;;;12.84;86.79
33625;BME280;19962;47.820;1.930;2024-01-30T05:21:49;101757.63;;;12.82;86.93
33625;BME280;19962;47.820;1.930;2024-01-30T05:24:15;101775.84;;;12.83;86.66
33625;BME280;19962;47.820;1.930;2024-01-30T05:26:41;101765.88;;;12.82;86.88
33625;BME280;19962;47.820;1.930;2024-01-30T05:29:08;101768.84;;;12.81;86.99
33625;BME280;19962;47.820;1.930;2024-01-30T05:31:36;101769.28;;;12.78;86.99
33625;BME280;19962;47.820;1.930;2024-01-30T05:34:03;101775.84;;;12.77;87.08
33625;BME280;19962;47.820;1.930;2024-01-30T05:36:29;101769.94;;;12.80;86.96
33625;BME280;19962;47.820;1.930;2024-01-30T05:38:56;101766.09;;;12.81;86.66
33625;BME280;19962;47.820;1.930;2024-01-30T05:41:23;101774.78;;;12.78;87.10
33625;BME280;19962;47.820;1.930;2024-01-30T05:43:49;101773.28;;;12.82;86.94
33625;BME280;19962;47.820;1.930;2024-01-30T05:46:15;101769.72;;;12.81;86.99
33625;BME280;19962;47.820;1.930;2024-01-30T05:48:41;101783.03;;;12.84;86.39
33625;BME280;19962;47.820;1.930;2024-01-30T05:51:08;101781.34;;;12.83;86.69
33625;BME280;19962;47.820;1.930;2024-01-30T05:53:34;101777.72;;;12.83;86.90
33625;BME280;19962;47.820;1.930;2024-01-30T05:56:02;101778.19;;;12.80;86.76
33625;BME280;19962;47.820;1.930;2024-01-30T05:58:29;101783.25;;;12.83;86.81
33625;BME280;19962;47.820;1.930;2024-01-30T06:00:55;101781.13;;;12.85;86.69
33625;BME280;19962;47.820;1.930;2024-01-30T06:03:21;101779.00;;;12.87;86.46
33625;BME280;19962;47.820;1.930;2024-01-30T06:05:47;101782.41;;;12.82;86.70
33625;BME280;19962;47.820;1.930;2024-01-30T06:08:13;101780.94;;;12.80;86.92
33625;BME280;19962;47.820;1.930;2024-01-30T06:10:39;101783.25;;;12.83;86.80
33625;BME280;19962;47.820;1.930;2024-01-30T06:13:06;101787.06;;;12.82;86.76
33625;BME280;19962;47.820;1.930;2024-01-30T06:15:32;101796.19;;;12.82;86.89
33625;BME280;19962;47.820;1.930;2024-01-30T06:17:59;101797.00;;;12.83;86.81
33625;BME280;19962;47.820;1.930;2024-01-30T06:20:25;101790.47;;;12.84;86.48
33625;BME280;19962;47.820;1.930;2024-01-30T06:22:51;101793.22;;;12.84;86.58
33625;BME280;19962;47.820;1.930;2024-01-30T06:25:17;101804.25;;;12.84;86.53
33625;BME280;19962;47.820;1.930;2024-01-30T06:27:43;101809.09;;;12.82;86.56
33625;BME280;19962;47.820;1.930;2024-01-30T06:30:10;101811.44;;;12.85;86.32
33625;BME280;19962;47.820;1.930;2024-01-30T06:32:36;101809.75;;;12.84;86.50
33625;BME280;19962;47.820;1.930;2024-01-30T06:35:02;101811.22;;;12.86;86.42
33625;BME280;19962;47.820;1.930;2024-01-30T06:37:29;101812.69;;;12.89;86.09
33625;BME280;19962;47.820;1.930;2024-01-30T06:39:55;101809.75;;;12.84;86.23
33625;BME280;19962;47.820;1.930;2024-01-30T06:42:21;101814.41;;;12.77;86.28
33625;BME280;19962;47.820;1.930;2024-01-30T06:44:47;101818.03;;;12.77;86.44
33625;BME280;19962;47.820;1.930;2024-01-30T06:47:13;101814.00;;;12.80;86.55
33625;BME280;19962;47.820;1.930;2024-01-30T06:49:39;101816.94;;;12.78;86.55
33625;BME280;19962;47.820;1.930;2024-01-30T06:52:08;101822.03;;;12.81;86.49
33625;BME280;19962;47.820;1.930;2024-01-30T06:54:34;101827.53;;;12.81;86.31
33625;BME280;19962;47.820;1.930;2024-01-30T06:57:00;101830.72;;;12.85;86.17
33625;BME280;19962;47.820;1.930;2024-01-30T06:59:26;101828.38;;;12.82;86.34
33625;BME280;19962;47.820;1.930;2024-01-30T07:01:52;101827.09;;;12.84;86.32
33625;BME280;19962;47.820;1.930;2024-01-30T07:04:18;101842.78;;;12.84;86.24
33625;BME280;19962;47.820;1.930;2024-01-30T07:06:45;101839.41;;;12.82;86.09
33625;BME280;19962;47.820;1.930;2024-01-30T07:09:11;101841.94;;;12.77;86.31
33625;BME280;19962;47.820;1.930;2024-01-30T07:11:37;101844.91;;;12.75;86.34
33625;BME280;19962;47.820;1.930;2024-01-30T07:14:03;101851.69;;;12.73;86.60
33625;BME280;19962;47.820;1.930;2024-01-30T07:16:30;101845.34;;;12.72;86.49
33625;BME280;19962;47.820;1.930;2024-01-30T07:18:56;101853.81;;;12.71;86.78
33625;BME280;19962;47.820;1.930;2024-01-30T07:21:23;101862.09;;;12.71;86.45
33625;BME280;19962;47.820;1.930;2024-01-30T07:23:54;101863.16;;;12.70;86.55
33625;BME280;19962;47.820;1.930;2024-01-30T07:26:20;101853.81;;;12.71;86.48
33625;BME280;19962;47.820;1.930;2024-01-30T07:28:46;101862.28;;;12.69;86.69
33625;BME280;19962;47.820;1.930;2024-01-30T07:31:13;101865.25;;;12.68;86.62
33625;BME280;19962;47.820;1.930;2024-01-30T07:33:39;101873.94;;;12.65;86.63
33625;BME280;19962;47.820;1.930;2024-01-30T07:36:05;101867.19;;;12.61;86.76
33625;BME280;19962;47.820;1.930;2024-01-30T07:38:34;101876.25;;;12.61;86.71
33625;BME280;19962;47.820;1.930;2024-01-30T07:41:00;101879.00;;;12.61;86.96
33625;BME280;19962;47.820;1.930;2024-01-30T07:43:26;101886.88;;;12.58;86.79
33625;BME280;19962;47.820;1.930;2024-01-30T07:45:52;101889.41;;;12.59;86.77
33625;BME280;19962;47.820;1.930;2024-01-30T07:48:19;101886.88;;;12.58;86.69
33625;BME280;19962;47.820;1.930;2024-01-30T07:50:45;101895.13;;;12.58;86.78
33625;BME280;19962;47.820;1.930;2024-01-30T07:53:11;101885.19;;;12.57;87.11
33625;BME280;19962;47.820;1.930;2024-01-30T07:55:37;101898.28;;;12.61;86.83
33625;BME280;19962;47.820;1.930;2024-01-30T07:58:03;101900.44;;;12.66;86.67
33625;BME280;19962;47.820;1.930;2024-01-30T08:00:30;101907.22;;;12.63;86.67
33625;BME280;19962;47.820;1.930;2024-01-30T08:02:56;101908.91;;;12.64;86.40
33625;BME280;19962;47.820;1.930;2024-01-30T08:05:23;101904.22;;;12.65;86.61
33625;BME280;19962;47.820;1.930;2024-01-30T08:07:50;101908.91;;;12.64;86.72
33625;BME280;19962;47.820;1.930;2024-01-30T08:10:16;101900.44;;;12.66;86.76
33625;BME280;19962;47.820;1.930;2024-01-30T08:12:44;101902.53;;;12.70;86.33
33625;BME280;19962;47.820;1.930;2024-01-30T08:15:11;101910.59;;;12.72;86.46
33625;BME280;19962;47.820;1.930;2024-01-30T08:17:38;101903.38;;;12.71;86.49
33625;BME280;19962;47.820;1.930;2024-01-30T08:20:05;101910.16;;;12.75;86.16
33625;BME280;19962;47.820;1.930;2024-01-30T08:22:31;101909.31;;;12.74;86.46
33625;BME280;19962;47.820;1.930;2024-01-30T08:24:57;101911.00;;;12.75;86.26
33625;BME280;19962;47.820;1.930;2024-01-30T08:27:23;101908.03;;;12.77;86.49
33625;BME280;19962;47.820;1.930;2024-01-30T08:29:49;101913.53;;;12.77;86.38
33625;BME280;19962;47.820;1.930;2024-01-30T08:32:16;101909.72;;;12.78;86.50
33625;BME280;19962;47.820;1.930;2024-01-30T08:34:42;101916.50;;;12.88;86.06
33625;BME280;19962;47.820;1.930;2024-01-30T08:37:08;101913.13;;;12.86;85.90
33625;BME280;19962;47.820;1.930;2024-01-30T08:39:34;101922.00;;;12.82;86.14
33625;BME280;19962;47.820;1.930;2024-01-30T08:42:00;101928.81;;;12.86;86.16
33625;BME280;19962;47.820;1.930;2024-01-30T08:44:26;101918.19;;;12.89;85.81
33625;BME280;19962;47.820;1.930;2024-01-30T08:46:53;101922.44;;;12.92;86.01
33625;BME280;19962;47.820;1.930;2024-01-30T08:49:20;101922.00;;;12.95;85.93
33625;BME280;19962;47.820;1.930;2024-01-30T08:51:46;101918.63;;;12.93;85.86
33625;BME280;19962;47.820;1.930;2024-01-30T08:54:13;101927.31;;;12.90;85.81
33625;BME280;19962;47.820;1.930;2024-01-30T08:56:39;101926.25;;;12.91;86.15
33625;BME280;19962;47.820;1.930;2024-01-30T08:59:05;101934.31;;;12.92;86.23
33625;BME280;19962;47.820;1.930;2024-01-30T09:01:31;101933.44;;;12.92;86.24
33625;BME280;19962;47.820;1.930;2024-01-30T09:03:57;101942.16;;;12.89;86.51
33625;BME280;19962;47.820;1.930;2024-01-30T09:06:23;101949.34;;;12.96;86.25
33625;BME280;19962;47.820;1.930;2024-01-30T09:08:52;101943.47;;;13.06;85.77
33625;BME280;19962;47.820;1.930;2024-01-30T09:11:18;101945.78;;;13.15;85.77
33625;BME280;19962;47.820;1.930;2024-01-30T09:13:45;101938.16;;;13.24;85.06
33625;BME280;19962;47.820;1.930;2024-01-30T09:16:11;101951.69;;;13.32;84.66
33625;BME280;19962;47.820;1.930;2024-01-30T09:18:37;101948.50;;;13.35;84.78
33625;BME280;19962;47.820;1.930;2024-01-30T09:21:03;101963.34;;;13.34;84.19
33625;BME280;19962;47.820;1.930;2024-01-30T09:23:29;101959.53;;;13.35;84.40
33625;BME280;19962;47.820;1.930;2024-01-30T09:25:56;101962.28;;;13.35;84.02
33625;BME280;19962;47.820;1.930;2024-01-30T09:28:22;101971.63;;;13.34;84.31
33625;BME280;19962;47.820;1.930;2024-01-30T09:30:48;101964.63;;;13.38;84.17
33625;BME280;19962;47.820;1.930;2024-01-30T09:33:14;101972.69;;;13.39;84.35
33625;BME280;19962;47.820;1.930;2024-01-30T09:35:40;101969.91;;;13.46;84.13
33625;BME280;19962;47.820;1.930;2024-01-30T09:38:06;101968.19;;;13.51;84.31
33625;BME280;19962;47.820;1.930;2024-01-30T09:40:32;101972.84;;;13.57;84.01
33625;BME280;19962;47.820;1.930;2024-01-30T09:42:59;101977.28;;;13.65;83.54
33625;BME280;19962;47.820;1.930;2024-01-30T09:45:28;101980.44;;;13.75;83.45
33625;BME280;19962;47.820;1.930;2024-01-30T09:47:55;101983.19;;;13.75;83.35
33625;BME280;19962;47.820;1.930;2024-01-30T09:50:22;101978.97;;;13.72;83.36
33625;BME280;19962;47.820;1.930;2024-01-30T09:52:48;101980.84;;;13.72;83.55
33625;BME280;19962;47.820;1.930;2024-01-30T09:55:15;101978.09;;;13.72;83.56
33625;BME280;19962;47.820;1.930;2024-01-30T09:57:42;101988.28;;;13.78;83.39
33625;BME280;19962;47.820;1.930;2024-01-30T10:00:09;101985.06;;;13.87;82.94
33625;BME280;19962;47.820;1.930;2024-01-30T10:02:35;101987.78;;;13.94;82.54
33625;BME280;19962;47.820;1.930;2024-01-30T10:05:02;101995.03;;;13.95;82.73
33625;BME280;19962;47.820;1.930;2024-01-30T10:07:28;101982.25;;;14.00;82.70
33625;BME280;19962;47.820;1.930;2024-01-30T10:09:55;101990.50;;;14.07;82.44
33625;BME280;19962;47.820;1.930;2024-01-30T10:12:22;101995.41;;;14.05;82.03
33625;BME280;19962;47.820;1.930;2024-01-30T10:14:48;102000.75;;;14.00;82.36
33625;BME280;19962;47.820;1.930;2024-01-30T10:17:15;101996.50;;;13.97;82.56
33625;BME280;19962;47.820;1.930;2024-01-30T10:19:41;101991.19;;;14.02;82.21
33625;BME280;19962;47.820;1.930;2024-01-30T10:22:09;101987.13;;;14.05;81.89
33625;BME280;19962;47.820;1.930;2024-01-30T10:24:35;101975.22;;;14.04;81.91
33625;BME280;19962;47.820;1.930;2024-01-30T10:27:01;101985.41;;;14.10;81.83
33625;BME280;19962;47.820;1.930;2024-01-30T10:29:28;101988.56;;;14.14;81.89
33625;BME280;19962;47.820;1.930;2024-01-30T10:32:02;101983.66;;;14.16;81.67
33625;BME280;19962;47.820;1.930;2024-01-30T10:34:28;101997.03;;;14.19;81.90
33625;BME280;19962;47.820;1.930;2024-01-30T10:39:28;101998.13;;;14.18;81.85
33625;BME280;19962;47.820;1.930;2024-01-30T10:41:58;102001.31;;;14.15;81.90
33625;BME280;19962;47.820;1.930;2024-01-30T10:44:35;102001.13;;;14.10;82.17
33625;BME280;19962;47.820;1.930;2024-01-30T10:47:07;102014.72;;;14.05;82.36
33625;BME280;19962;47.820;1.930;2024-01-30T10:49:39;102012.19;;;14.03;82.66
33625;BME280;19962;47.820;1.930;2024-01-30T10:52:09;102015.53;;;14.12;82.42
33625;BME280;19962;47.820;1.930;2024-01-30T10:54:37;102011.72;;;14.13;82.72
33625;BME280;19962;47.820;1.930;2024-01-30T10:57:04;102015.97;;;14.22;82.44
33625;BME280;19962;47.820;1.930;2024-01-30T10:59:32;102007.22;;;14.25;82.17
33625;BME280;19962;47.820;1.930;2024-01-30T11:02:00;102001.91;;;14.30;82.07
33625;BME280;19962;47.820;1.930;2024-01-30T11:04:26;102008.09;;;14.19;82.18
33625;BME280;19962;47.820;1.930;2024-01-30T11:06:52;102003.41;;;14.19;82.66
33625;BME280;19962;47.820;1.930;2024-01-30T11:09:20;101997.66;;;14.27;82.18
33625;BME280;19962;47.820;1.930;2024-01-30T11:11:58;102011.25;;;14.29;82.30
33625;BME280;19962;47.820;1.930;2024-01-30T11:14:30;102005.31;;;14.25;82.34
33625;BME280;19962;47.820;1.930;2024-01-30T11:17:00;102009.97;;;14.18;82.63
33625;BME280;19962;47.820;1.930;2024-01-30T11:19:27;102014.25;;;14.21;83.14
33625;BME280;19962;47.820;1.930;2024-01-30T11:21:53;102017.66;;;14.23;83.05
33625;BME280;19962;47.820;1.930;2024-01-30T11:24:23;102011.72;;;14.26;83.06
33625;BME280;19962;47.820;1.930;2024-01-30T11:26:55;102009.38;;;14.23;83.57
33625;BME280;19962;47.820;1.930;2024-01-30T11:29:25;102016.16;;;14.27;83.34
33625;BME280;19962;47.820;1.930;2024-01-30T11:31:55;102012.50;;;14.33;83.33
33625;BME280;19962;47.820;1.930;2024-01-30T11:34:22;102013.56;;;14.38;83.16
33625;BME280;19962;47.820;1.930;2024-01-30T11:36:52;102009.94;;;14.38;83.43
33625;BME280;19962;47.820;1.930;2024-01-30T11:39:21;102004.88;;;14.35;83.30
33625;BME280;19962;47.820;1.930;2024-01-30T11:41:50;102011.72;;;14.26;84.08
33625;BME280;19962;47.820;1.930;2024-01-30T11:44:17;102013.59;;;14.32;83.97
33625;BME280;19962;47.820;1.930;2024-01-30T11:46:43;102019.72;;;14.34;83.88
33625;BME280;19962;47.820;1.930;2024-01-30T11:49:09;102027.00;;;14.22;84.12
33625;BME280;19962;47.820;1.930;2024-01-30T11:51:36;102023.19;;;14.23;84.51
33625;BME280;19962;47.820;1.930;2024-01-30T11:54:02;102019.13;;;14.25;84.59
33625;BME280;19962;47.820;1.930;2024-01-30T11:56:29;102027.81;;;14.29;84.49
33625;BME280;19962;47.820;1.930;2024-01-30T11:58:55;102023.97;;;14.30;84.40
33625;BME280;19962;47.820;1.930;2024-01-30T12:01:21;102023.78;;;14.25;84.66
33625;BME280;19962;47.820;1.930;2024-01-30T12:03:50;102031.25;;;14.24;84.67
33625;BME280;19962;47.820;1.930;2024-01-30T12:06:17;102023.56;;;14.26;84.55
33625;BME280;19962;47.820;1.930;2024-01-30T12:08:43;102021.22;;;14.30;84.41
33625;BME280;19962;47.820;1.930;2024-01-30T12:11:19;102019.31;;;14.30;84.24
33625;BME280;19962;47.820;1.930;2024-01-30T12:13:45;102023.56;;;14.33;84.68
33625;BME280;19962;47.820;1.930;2024-01-30T12:16:12;102020.59;;;14.28;84.61
33625;BME280;19962;47.820;1.930;2024-01-30T12:18:39;102026.56;;;14.25;85.04
33625;BME280;19962;47.820;1.930;2024-01-30T12:21:05;102023.16;;;14.29;85.09
33625;BME280;19962;47.820;1.930;2024-01-30T12:23:31;102021.19;;;14.36;84.72
33625;BME280;19962;47.820;1.930;2024-01-30T12:25:57;102017.78;;;14.41;84.76
33625;BME280;19962;47.820;1.930;2024-01-30T12:28:24;102024.78;;;14.43;84.67
33625;BME280;19962;47.820;1.930;2024-01-30T12:30:50;102013.72;;;14.43;84.35
33625;BME280;19962;47.820;1.930;2024-01-30T12:33:19;102012.25;;;14.41;84.49
33625;BME280;19962;47.820;1.930;2024-01-30T12:35:48;102010.75;;;14.45;84.88
33625;BME280;19962;47.820;1.930;2024-01-30T12:38:15;102010.53;;;14.46;84.48
33625;BME280;19962;47.820;1.930;2024-01-30T12:40:41;102010.34;;;14.41;84.78
33625;BME280;19962;47.820;1.930;2024-01-30T12:43:07;102005.66;;;14.42;84.80
33625;BME280;19962;47.820;1.930;2024-01-30T12:45:34;102003.13;;;14.40;85.04
33625;BME280;19962;47.820;1.930;2024-01-30T12:48:00;102011.41;;;14.40;85.25
33625;BME280;19962;47.820;1.930;2024-01-30T12:50:26;102015.03;;;14.41;85.19